createdAt,value
2019-03-21T00:02:08.869Z,24.30
2019-03-21T00:04:42.675Z,18.37
2019-03-21T00:07:14.640Z,15.33
2019-03-21T00:10:49.112Z,17.03
2019-03-21T00:13:20.934Z,17.63
2019-03-21T00:15:56.809Z,17.23
2019-03-21T00:18:28.610Z,18.83
2019-03-21T00:21:00.606Z,14.73
2019-03-21T00:23:32.536Z,18.93
2019-03-21T00:26:04.524Z,16.90
2019-03-21T00:28:36.539Z,11.80
2019-03-21T00:31:08.631Z,24.83
2019-03-21T00:33:40.824Z,15.63
2019-03-21T00:36:12.822Z,12.13
2019-03-21T00:38:44.795Z,17.70
2019-03-21T00:41:16.741Z,16.93
2019-03-21T00:43:48.934Z,15.50
2019-03-21T00:46:20.959Z,19.87
2019-03-21T00:48:52.969Z,11.80
2019-03-21T00:51:25.026Z,15.17
2019-03-21T00:53:56.930Z,17.30
2019-03-21T00:56:29.118Z,18.90
2019-03-21T00:59:01.038Z,19.93
2019-03-21T01:01:33.106Z,14.30
2019-03-21T01:04:05.233Z,14.50
2019-03-21T01:06:37.241Z,15.90
2019-03-21T01:09:11.553Z,22.50
2019-03-21T01:11:43.551Z,13.60
2019-03-21T01:14:15.478Z,28.00
2019-03-21T01:16:47.398Z,18.17
2019-03-21T01:19:19.468Z,14.40
2019-03-21T01:21:51.353Z,19.80
2019-03-21T01:24:23.285Z,13.90
2019-03-21T01:26:55.303Z,17.40
2019-03-21T01:29:27.344Z,16.93
2019-03-21T01:31:59.280Z,19.30
2019-03-21T01:34:31.191Z,17.90
2019-03-21T01:37:03.200Z,17.80
2019-03-21T01:39:35.129Z,17.60
2019-03-21T01:42:07.109Z,19.77
2019-03-21T01:44:41.229Z,23.00
2019-03-21T01:47:12.879Z,16.40
2019-03-21T01:49:44.881Z,15.77
2019-03-21T01:52:16.775Z,20.17
2019-03-21T01:54:48.635Z,20.90
2019-03-21T01:57:20.679Z,16.30
2019-03-21T01:59:52.537Z,25.93
2019-03-21T02:02:24.348Z,24.33
2019-03-21T02:04:56.272Z,14.90
2019-03-21T02:07:28.158Z,16.50
2019-03-21T02:10:00.255Z,20.03
2019-03-21T02:12:32.352Z,19.57
2019-03-21T02:15:04.452Z,18.53
2019-03-21T02:17:36.526Z,20.50
2019-03-21T02:20:09.736Z,23.03
2019-03-21T02:22:42.015Z,17.20
2019-03-21T02:25:18.230Z,22.17
2019-03-21T02:27:50.128Z,17.03
2019-03-21T02:30:28.674Z,22.03
2019-03-21T02:33:11.719Z,19.57
2019-03-21T02:35:43.518Z,21.60
2019-03-21T02:38:15.452Z,25.43
2019-03-21T02:40:47.483Z,20.20
2019-03-21T02:43:20.444Z,20.37
2019-03-21T02:45:52.366Z,22.43
2019-03-21T02:48:24.280Z,21.57
2019-03-21T02:50:56.370Z,24.00
2019-03-21T02:53:28.478Z,24.07
2019-03-21T02:56:00.427Z,18.40
2019-03-21T02:58:32.399Z,21.17
2019-03-21T03:01:04.570Z,21.50
2019-03-21T03:03:36.697Z,15.20
2019-03-21T03:06:08.762Z,23.93
2019-03-21T03:08:40.709Z,19.90
2019-03-21T03:11:13.043Z,17.47
2019-03-21T03:13:46.885Z,20.50
2019-03-21T03:16:19.017Z,20.87
2019-03-21T03:18:51.158Z,21.67
2019-03-21T03:21:23.201Z,20.77
2019-03-21T03:23:55.166Z,17.67
2019-03-21T03:26:27.072Z,21.17
2019-03-21T03:28:58.916Z,20.33
2019-03-21T03:31:30.821Z,21.73
2019-03-21T03:34:02.733Z,33.73
2019-03-21T03:36:35.119Z,20.93
2019-03-21T03:39:09.441Z,17.13
2019-03-21T03:41:41.376Z,18.33
2019-03-21T03:44:13.436Z,19.40
2019-03-21T03:46:45.450Z,16.77
2019-03-21T03:49:17.260Z,23.47
2019-03-21T03:51:49.557Z,15.57
2019-03-21T03:54:21.660Z,17.97
2019-03-21T03:56:53.883Z,19.10
2019-03-21T03:59:25.883Z,18.90
2019-03-21T04:01:58.025Z,18.07
2019-03-21T04:04:30.373Z,20.40
2019-03-21T04:07:02.356Z,14.60
2019-03-21T04:09:34.618Z,15.60
2019-03-21T04:12:06.587Z,18.73
2019-03-21T04:14:38.513Z,22.43
2019-03-21T04:17:10.442Z,20.17
2019-03-21T04:19:42.388Z,20.67
2019-03-21T04:22:14.606Z,18.20
2019-03-21T04:24:47.045Z,30.93
2019-03-21T04:27:19.079Z,18.40
2019-03-21T04:29:51.240Z,21.80
2019-03-21T04:32:23.278Z,17.77
2019-03-21T04:34:55.187Z,19.30
2019-03-21T04:37:27.099Z,14.90
2019-03-21T04:39:58.948Z,18.27
2019-03-21T04:42:30.855Z,17.57
2019-03-21T04:45:02.864Z,12.97
2019-03-21T04:47:34.794Z,17.53
2019-03-21T04:50:09.206Z,12.73
2019-03-21T04:52:41.085Z,17.30
2019-03-21T04:55:14.988Z,17.53
2019-03-21T04:57:46.925Z,16.80
2019-03-21T05:00:22.898Z,86.50
2019-03-21T05:02:57.428Z,15.27
2019-03-21T05:05:29.409Z,14.90
2019-03-21T05:08:01.251Z,22.20
2019-03-21T05:10:33.267Z,14.97
2019-03-21T05:13:06.327Z,19.37
2019-03-21T05:15:40.096Z,28.13
2019-03-21T05:18:20.078Z,18.47
2019-03-21T05:20:52.179Z,15.37
2019-03-21T05:23:25.427Z,20.57
2019-03-21T05:25:57.600Z,24.13
2019-03-21T05:28:30.577Z,21.03
2019-03-21T05:31:11.086Z,20.40
2019-03-21T05:33:43.095Z,20.53
2019-03-21T05:36:15.077Z,22.90
2019-03-21T05:38:48.239Z,20.43
2019-03-21T05:41:20.218Z,23.90
2019-03-21T05:44:03.891Z,20.07
2019-03-21T05:46:35.907Z,18.20
2019-03-21T05:49:07.807Z,28.67
2019-03-21T05:51:39.897Z,17.93
2019-03-21T05:54:12.182Z,25.53
2019-03-21T05:56:44.318Z,19.53
2019-03-21T05:59:16.147Z,17.70
2019-03-21T06:01:48.106Z,27.50
2019-03-21T06:04:19.956Z,26.23
2019-03-21T06:07:26.919Z,24.77
2019-03-21T06:09:58.934Z,19.03
2019-03-21T06:12:31.270Z,18.30
2019-03-21T06:15:03.585Z,27.83
2019-03-21T06:17:35.606Z,28.10
2019-03-21T06:20:32.071Z,19.33
2019-03-21T06:23:25.985Z,25.90
2019-03-21T06:26:30.755Z,25.60
2019-03-21T06:29:02.908Z,21.70
2019-03-21T06:31:34.805Z,17.53
2019-03-21T06:34:06.666Z,31.13
2019-03-21T06:36:38.671Z,21.63
2019-03-21T06:39:11.371Z,23.03
2019-03-21T06:41:43.353Z,23.17
2019-03-21T06:44:15.364Z,24.33
2019-03-21T06:46:49.757Z,20.87
2019-03-21T06:49:20.967Z,16.20
2019-03-21T06:51:53.108Z,27.30
2019-03-21T06:54:25.008Z,22.53
2019-03-21T06:56:57.262Z,17.27
2019-03-21T06:59:29.351Z,17.77
2019-03-21T07:02:01.299Z,21.40
2019-03-21T07:04:33.290Z,14.97
2019-03-21T07:07:08.412Z,18.70
2019-03-21T07:09:39.019Z,21.23
2019-03-21T07:12:11.228Z,14.67
2019-03-21T07:14:43.156Z,13.57
2019-03-21T07:17:15.318Z,15.57
2019-03-21T07:19:47.536Z,15.80
2019-03-21T07:22:19.468Z,14.37
2019-03-21T07:24:51.349Z,20.90
2019-03-21T07:27:23.276Z,19.63
2019-03-21T07:29:55.161Z,14.53
2019-03-21T07:32:33.400Z,16.73
2019-03-21T07:35:00.899Z,17.13
2019-03-21T07:37:33.148Z,18.03
2019-03-21T07:40:06.544Z,12.47
2019-03-21T07:42:38.508Z,18.77
2019-03-21T07:45:11.077Z,12.33
2019-03-21T07:47:43.189Z,12.43
2019-03-21T07:50:15.543Z,10.57
2019-03-21T07:52:47.712Z,9.97
2019-03-21T07:55:20.579Z,17.23
2019-03-21T07:57:52.710Z,14.50
2019-03-21T08:00:24.623Z,10.80
2019-03-21T08:02:56.851Z,8.30
2019-03-21T08:05:39.480Z,13.10
2019-03-21T08:08:02.370Z,13.20
2019-03-21T08:10:34.532Z,10.93
2019-03-21T08:13:07.515Z,14.50
2019-03-21T08:15:39.680Z,7.10
2019-03-21T08:18:11.659Z,12.97
2019-03-21T08:20:43.599Z,8.50
2019-03-21T08:23:15.443Z,6.97
2019-03-21T08:25:47.591Z,7.50
2019-03-21T08:28:19.507Z,19.43
2019-03-21T08:31:16.829Z,8.80
2019-03-21T08:33:48.895Z,11.00
2019-03-21T08:36:20.819Z,11.93
2019-03-21T08:38:52.935Z,9.17
2019-03-21T08:41:24.919Z,10.70
2019-03-21T08:43:57.978Z,9.43
2019-03-21T08:46:30.040Z,17.43
2019-03-21T08:49:02.024Z,11.00
2019-03-21T08:51:33.900Z,8.73
2019-03-21T08:54:06.003Z,11.23
2019-03-21T08:56:37.897Z,10.07
2019-03-21T08:59:09.787Z,17.57
2019-03-21T09:01:41.861Z,13.10
2019-03-21T09:04:13.997Z,12.80
2019-03-21T09:06:46.166Z,21.50
2019-03-21T09:09:18.175Z,8.83
2019-03-21T09:11:50.303Z,9.23
2019-03-21T09:14:23.358Z,10.63
2019-03-21T09:16:55.243Z,14.53
2019-03-21T09:19:27.288Z,12.33
2019-03-21T09:21:59.171Z,7.63
2019-03-21T09:24:31.209Z,7.47
2019-03-21T09:27:03.189Z,9.77
2019-03-21T09:29:35.105Z,9.93
2019-03-21T09:32:07.142Z,14.43
2019-03-21T09:34:39.007Z,21.37
2019-03-21T09:37:10.818Z,8.67
2019-03-21T09:39:42.649Z,13.33
2019-03-21T09:42:14.554Z,11.07
2019-03-21T09:44:46.632Z,12.00
2019-03-21T09:47:18.607Z,12.60
2019-03-21T09:49:50.633Z,9.17
2019-03-21T09:52:22.714Z,6.83
2019-03-21T09:54:54.707Z,9.63
2019-03-21T09:57:26.786Z,9.43
2019-03-21T09:59:58.696Z,10.80
2019-03-21T10:02:30.520Z,9.73
2019-03-21T10:05:02.615Z,8.63
2019-03-21T10:07:34.628Z,14.67
2019-03-21T10:10:07.326Z,12.10
2019-03-21T10:12:39.136Z,8.70
2019-03-21T10:15:11.230Z,15.90
2019-03-21T10:17:43.059Z,12.40
2019-03-21T10:20:15.162Z,12.67
2019-03-21T10:22:47.087Z,9.17
2019-03-21T10:25:19.101Z,9.43
2019-03-21T10:27:51.217Z,13.60
2019-03-21T10:30:34.815Z,16.63
2019-03-21T10:33:08.603Z,10.60
2019-03-21T10:35:41.075Z,6.53
2019-03-21T10:38:13.544Z,11.50
2019-03-21T10:40:45.586Z,10.10
2019-03-21T10:43:17.709Z,6.90
2019-03-21T10:45:49.685Z,7.13
2019-03-21T10:48:23.510Z,9.50
2019-03-21T10:50:55.350Z,8.20
2019-03-21T10:53:28.426Z,8.33
2019-03-21T10:56:00.279Z,11.63
2019-03-21T10:58:32.319Z,7.87
2019-03-21T11:01:04.408Z,9.43
2019-03-21T11:03:36.251Z,7.40
2019-03-21T11:06:08.560Z,6.43
2019-03-21T11:08:40.382Z,8.20
2019-03-21T11:11:13.779Z,10.37
2019-03-21T11:13:45.718Z,12.97
2019-03-21T11:16:17.647Z,7.30
2019-03-21T11:18:49.661Z,7.67
2019-03-21T11:21:21.565Z,12.03
2019-03-21T11:23:53.640Z,9.73
2019-03-21T11:26:25.671Z,11.73
2019-03-21T11:28:57.639Z,11.33
2019-03-21T11:31:29.892Z,6.10
2019-03-21T11:34:01.950Z,8.30
2019-03-21T11:36:38.682Z,7.43
2019-03-21T11:39:09.643Z,13.87
2019-03-21T11:41:41.551Z,8.70
2019-03-21T11:44:13.367Z,7.37
2019-03-21T11:46:45.316Z,8.80
2019-03-21T11:49:17.195Z,7.00
2019-03-21T11:51:49.391Z,7.77
2019-03-21T11:54:21.494Z,7.77
2019-03-21T11:56:53.685Z,6.27
2019-03-21T11:59:38.154Z,8.33
2019-03-21T12:01:59.266Z,10.60
2019-03-21T12:04:31.132Z,7.77
2019-03-21T12:07:02.995Z,6.27
2019-03-21T12:09:35.014Z,9.20
2019-03-21T12:12:07.171Z,8.80
2019-03-21T12:14:39.068Z,7.80
2019-03-21T12:17:12.824Z,9.20
2019-03-21T12:19:44.666Z,9.67
2019-03-21T12:22:16.493Z,7.70
2019-03-21T12:24:48.505Z,9.60
2019-03-21T12:27:20.536Z,7.87
2019-03-21T12:29:52.575Z,8.97
2019-03-21T12:32:24.548Z,6.60
2019-03-21T12:34:56.430Z,9.03
2019-03-21T12:37:28.415Z,15.10
2019-03-21T12:40:00.360Z,9.33
2019-03-21T12:42:32.580Z,10.00
2019-03-21T12:45:06.336Z,11.63
2019-03-21T12:47:39.306Z,12.23
2019-03-21T12:50:11.791Z,12.33
2019-03-21T12:52:43.703Z,10.73
2019-03-21T12:55:15.961Z,7.57
2019-03-21T12:57:48.184Z,9.67
2019-03-21T13:00:50.703Z,9.03
2019-03-21T13:03:22.611Z,23.17
2019-03-21T13:05:54.604Z,9.00
2019-03-21T13:08:33.854Z,6.90
2019-03-21T13:11:01.090Z,14.50
2019-03-21T13:13:33.546Z,20.13
2019-03-21T13:16:05.693Z,9.87
2019-03-21T13:18:37.815Z,17.10
2019-03-21T13:21:09.703Z,9.00
2019-03-21T13:23:41.534Z,8.67
2019-03-21T13:26:13.599Z,11.03
2019-03-21T13:28:45.516Z,10.43
2019-03-21T13:31:17.508Z,14.07
2019-03-21T13:33:49.455Z,11.20
2019-03-21T13:36:21.362Z,10.50
2019-03-21T13:38:53.294Z,16.73
2019-03-21T13:41:25.158Z,12.17
2019-03-21T13:43:57.098Z,13.37
2019-03-21T13:46:29.004Z,10.53
2019-03-21T13:49:01.221Z,18.10
2019-03-21T13:51:33.038Z,19.43
2019-03-21T13:54:05.072Z,9.27
2019-03-21T13:56:38.298Z,16.93
2019-03-21T13:59:10.324Z,12.17
2019-03-21T14:01:42.149Z,11.30
2019-03-21T14:04:14.143Z,13.07
2019-03-21T14:06:46.219Z,11.60
2019-03-21T14:09:20.325Z,13.63
2019-03-21T14:11:51.849Z,16.47
2019-03-21T14:14:23.714Z,7.10
2019-03-21T14:16:55.872Z,10.67
2019-03-21T14:19:27.887Z,12.20
2019-03-21T14:22:00.027Z,12.23
2019-03-21T14:24:31.885Z,8.60
2019-03-21T14:27:04.001Z,11.83
2019-03-21T14:29:35.943Z,17.03
2019-03-21T14:32:07.854Z,10.67
2019-03-21T14:34:40.751Z,13.30
2019-03-21T14:37:12.646Z,15.40
2019-03-21T14:39:44.564Z,11.13
2019-03-21T14:42:16.551Z,9.30
2019-03-21T14:44:48.508Z,15.00
2019-03-21T14:47:20.439Z,15.93
2019-03-21T14:49:53.198Z,19.77
2019-03-21T14:52:25.363Z,13.60
2019-03-21T14:54:58.803Z,12.37
2019-03-21T14:57:31.066Z,14.20
2019-03-21T15:00:03.211Z,15.00
2019-03-21T15:02:36.734Z,11.53
2019-03-21T15:05:10.283Z,12.37
2019-03-21T15:07:42.181Z,10.57
2019-03-21T15:10:15.185Z,11.23
2019-03-21T15:12:47.245Z,13.13
2019-03-21T15:15:19.451Z,14.83
2019-03-21T15:17:51.278Z,12.80
2019-03-21T15:20:23.203Z,13.57
2019-03-21T15:22:57.032Z,19.87
2019-03-21T15:25:28.949Z,15.27
2019-03-21T15:28:00.903Z,12.87
2019-03-21T15:30:32.794Z,11.83
2019-03-21T15:33:04.828Z,20.97
2019-03-21T15:35:36.712Z,15.87
2019-03-21T15:38:08.533Z,16.73
2019-03-21T15:40:40.767Z,11.73
2019-03-21T15:43:12.679Z,49.83
2019-03-21T15:45:44.513Z,19.70
2019-03-21T15:48:16.607Z,13.90
2019-03-21T15:50:49.594Z,17.90
2019-03-21T15:53:21.597Z,11.23
2019-03-21T15:55:53.740Z,13.33
2019-03-21T15:58:25.773Z,15.60
2019-03-21T16:00:57.610Z,11.87
2019-03-21T16:03:29.435Z,15.70
2019-03-21T16:06:01.332Z,14.47
2019-03-21T16:08:34.150Z,14.90
2019-03-21T16:11:06.180Z,15.00
2019-03-21T16:13:38.088Z,26.53
2019-03-21T16:16:10.268Z,17.80
2019-03-21T16:18:42.169Z,11.17
2019-03-21T16:21:14.183Z,17.97
2019-03-21T16:23:46.029Z,20.07
2019-03-21T16:26:17.905Z,11.73
2019-03-21T16:28:49.741Z,15.83
2019-03-21T16:31:21.642Z,12.17
2019-03-21T16:33:53.708Z,18.00
2019-03-21T16:36:25.753Z,13.77
2019-03-21T16:38:57.840Z,14.13
2019-03-21T16:41:30.020Z,12.03
2019-03-21T16:44:02.052Z,10.10
2019-03-21T16:46:34.151Z,9.50
2019-03-21T16:49:06.525Z,10.47
2019-03-21T16:51:38.684Z,10.03
2019-03-21T16:54:17.063Z,13.07
2019-03-21T16:56:44.719Z,16.47
2019-03-21T16:59:16.863Z,9.63
2019-03-21T17:01:48.669Z,10.07
2019-03-21T17:04:20.658Z,9.90
2019-03-21T17:06:52.494Z,12.20
2019-03-21T17:09:24.487Z,15.10
2019-03-21T17:11:56.488Z,20.47
2019-03-21T17:14:28.374Z,15.90
2019-03-21T17:17:00.386Z,12.40
2019-03-21T17:19:32.346Z,14.70
2019-03-21T17:22:04.239Z,13.83
2019-03-21T17:24:36.118Z,13.10
2019-03-21T17:27:08.220Z,15.80
2019-03-21T17:29:40.356Z,26.63
2019-03-21T17:32:12.421Z,14.87
2019-03-21T17:34:44.309Z,12.40
2019-03-21T17:37:16.301Z,13.90
2019-03-21T17:39:48.141Z,12.27
2019-03-21T17:42:21.119Z,13.53
2019-03-21T17:44:54.037Z,14.50
2019-03-21T17:47:25.949Z,18.10
2019-03-21T17:49:57.926Z,16.20
2019-03-21T17:52:30.297Z,15.73
2019-03-21T17:55:02.202Z,11.00
2019-03-21T17:57:34.934Z,11.83
2019-03-21T18:00:11.684Z,14.20
2019-03-21T18:02:43.750Z,13.93
2019-03-21T18:05:15.911Z,16.03
2019-03-21T18:07:47.859Z,15.27
2019-03-21T18:10:28.991Z,17.93
2019-03-21T18:13:01.983Z,15.87
2019-03-21T18:15:34.132Z,14.70
2019-03-21T18:18:06.608Z,19.90
2019-03-21T18:20:38.669Z,23.23
2019-03-21T18:23:10.708Z,14.13
2019-03-21T18:25:42.532Z,25.87
2019-03-21T18:28:14.459Z,13.17
2019-03-21T18:30:46.526Z,10.47
2019-03-21T18:33:19.372Z,13.63
2019-03-21T18:35:51.473Z,14.07
2019-03-21T18:38:23.332Z,15.37
2019-03-21T18:40:55.175Z,17.33
2019-03-21T18:43:27.212Z,16.37
2019-03-21T18:45:59.407Z,15.87
2019-03-21T18:48:31.502Z,12.20
2019-03-21T18:51:03.695Z,16.63
2019-03-21T18:53:35.541Z,19.60
2019-03-21T18:56:09.471Z,16.37
2019-03-21T18:58:41.080Z,16.70
2019-03-21T19:01:12.980Z,13.37
2019-03-21T19:03:44.941Z,10.47
2019-03-21T19:06:16.904Z,15.60
2019-03-21T19:08:48.909Z,15.67
2019-03-21T19:11:20.957Z,20.40
2019-03-21T19:13:52.875Z,14.83
2019-03-21T19:16:24.745Z,18.10
2019-03-21T19:18:56.808Z,16.30
2019-03-21T19:21:28.859Z,24.23
2019-03-21T19:24:01.016Z,17.23
2019-03-21T19:26:33.085Z,24.53
2019-03-21T19:29:05.224Z,28.30
2019-03-21T19:31:37.076Z,17.10
2019-03-21T19:34:08.961Z,18.50
2019-03-21T19:36:40.844Z,23.47
2019-03-21T19:39:13.000Z,24.23
2019-03-21T19:41:44.998Z,17.97
2019-03-21T19:44:16.995Z,25.97
2019-03-21T19:46:48.909Z,18.50
2019-03-21T19:49:21.032Z,26.40
2019-03-21T19:51:54.120Z,27.20
2019-03-21T19:54:26.126Z,36.00
2019-03-21T19:56:57.913Z,27.87
2019-03-21T19:59:29.751Z,24.53
2019-03-21T20:02:01.816Z,29.17
2019-03-21T20:04:33.933Z,34.30
2019-03-21T20:07:05.958Z,22.87
2019-03-21T20:09:37.998Z,27.80
2019-03-21T20:12:10.196Z,25.57
2019-03-21T20:14:42.359Z,23.80
2019-03-21T20:17:14.367Z,26.10
2019-03-21T20:19:46.286Z,25.67
2019-03-21T20:22:18.196Z,38.93
2019-03-21T20:24:50.243Z,25.63
2019-03-21T20:27:22.389Z,31.07
2019-03-21T20:29:54.572Z,31.33
2019-03-21T20:32:26.545Z,34.57
2019-03-21T20:34:58.524Z,31.00
2019-03-21T20:37:30.675Z,32.73
2019-03-21T20:40:02.860Z,45.17
2019-03-21T20:42:35.053Z,82.20
2019-03-21T20:45:10.337Z,99.10
2019-03-21T20:47:42.300Z,84.60
2019-03-21T20:50:14.521Z,82.07
2019-03-21T20:52:46.740Z,59.73
2019-03-21T20:55:19.921Z,48.67
2019-03-21T20:57:53.172Z,45.20
2019-03-21T21:00:26.075Z,36.77
2019-03-21T21:02:58.089Z,28.80
2019-03-21T21:05:30.339Z,33.20
2019-03-21T21:08:02.320Z,34.03
2019-03-21T21:10:34.377Z,29.10
2019-03-21T21:13:06.735Z,29.77
2019-03-21T21:15:39.934Z,35.07
2019-03-21T21:18:12.029Z,33.67
2019-03-21T21:20:44.272Z,35.23
2019-03-21T21:23:16.351Z,39.27
2019-03-21T21:25:48.426Z,30.30
2019-03-21T21:28:20.273Z,38.03
2019-03-21T21:30:52.454Z,30.97
2019-03-21T21:33:24.494Z,27.63
2019-03-21T21:35:56.779Z,37.47
2019-03-21T21:38:28.743Z,35.57
2019-03-21T21:41:00.728Z,38.53
2019-03-21T21:43:32.751Z,34.43
2019-03-21T21:46:04.957Z,33.10
2019-03-21T21:48:37.043Z,28.40
2019-03-21T21:51:09.097Z,34.50
2019-03-21T21:53:41.055Z,32.37
2019-03-21T21:56:17.632Z,31.93
2019-03-21T21:58:46.812Z,33.63
2019-03-21T22:01:18.768Z,30.10
2019-03-21T22:03:50.691Z,28.13
2019-03-21T22:06:22.889Z,33.20
2019-03-21T22:08:55.123Z,30.50
2019-03-21T22:11:27.226Z,37.23
2019-03-21T22:13:59.071Z,33.63
2019-03-21T22:16:31.173Z,35.37
2019-03-21T22:19:03.117Z,32.20
2019-03-21T22:21:35.211Z,29.73
2019-03-21T22:24:08.411Z,33.93
2019-03-21T22:26:40.667Z,36.60
2019-03-21T22:29:12.570Z,33.80
2019-03-21T22:31:44.577Z,35.03
2019-03-21T22:34:18.996Z,30.60
2019-03-21T22:36:49.951Z,35.63
2019-03-21T22:39:21.796Z,24.63
2019-03-21T22:41:53.780Z,28.17
2019-03-21T22:44:25.784Z,33.23
2019-03-21T22:46:57.899Z,41.70
2019-03-21T22:49:30.088Z,31.13
2019-03-21T22:52:02.230Z,32.40
2019-03-21T22:54:34.208Z,31.23
2019-03-21T22:57:06.387Z,34.43
2019-03-21T22:59:38.426Z,21.70
2019-03-21T23:02:10.584Z,31.03
2019-03-21T23:04:42.730Z,24.20
2019-03-21T23:07:14.917Z,22.20
2019-03-21T23:09:46.994Z,28.50
2019-03-21T23:12:18.972Z,23.17
2019-03-21T23:14:50.896Z,23.47
2019-03-21T23:17:22.932Z,18.70
2019-03-21T23:19:54.907Z,22.10
2019-03-21T23:22:26.769Z,22.60
2019-03-21T23:24:58.832Z,25.50
2019-03-21T23:27:31.978Z,23.80
2019-03-21T23:30:03.994Z,22.07
2019-03-21T23:32:35.987Z,27.43
2019-03-21T23:35:08.939Z,24.03
2019-03-21T23:37:41.268Z,26.90
2019-03-21T23:40:14.665Z,30.23
2019-03-21T23:42:46.917Z,36.43
2019-03-21T23:45:20.151Z,40.97
2019-03-21T23:47:52.079Z,29.00
2019-03-21T23:50:23.982Z,26.43
2019-03-21T23:52:56.185Z,26.17
2019-03-21T23:55:28.067Z,33.97
2019-03-21T23:58:00.050Z,25.77
